Central Sierra Snow Lab Weather observations

Data are for 10 minute period ending at time listed.
 Day   Time    Incoming  Reflected   Ave.   Ave.    Ave.    Vector  Max.    Ave.    Total    Snow   
  of    of      Solar     Solar      Air    Rel.    Wind    Wind    Wind   Baro.   Precip.   Depth  
Year   Day     Radiation Radiation   Temp.  Humid.  Speed   Dir.    Gust   Press.                   
2016   (PST)    Kw/m2     Kw/m2       F       %      mph     deg.    mph     mb.     in.      in.   
----------------------------------------------------------------------------------------------------
 125    3:20    0.000     999.000     34.6     94     2.9      38     6.0   790.70   20.95   16.40  
 125    3:30    0.000     999.000     34.8     96     2.7      40     5.4   790.60   20.95   16.40  
 125    3:40    0.000     999.000     34.8     98     2.9      40     6.6   790.50   20.96   16.40  
 125    3:50    0.000     999.000     35.8     88     3.8      27     7.5   790.50   20.96   16.30  
 125    4:00    0.000     999.000     35.4     90     3.6      32     6.3   790.40   20.96   16.40  
 125    4:10    0.000     999.000     35.4     90     2.8      40     5.0   790.40   20.96   16.40  
 125    4:20    0.000     999.000     35.1     94     2.6      37     4.4   790.30   20.96   16.40  
 125    4:30    0.000     999.000     34.9    100     1.8      24     4.0   790.40   20.96   16.40  
 125    4:40    0.000     999.000     34.8    100     2.7      31     5.0   790.40   20.97   16.40  
 125    4:50    0.000     999.000     35.0    100     2.6      26     4.4   790.40   20.96   16.40  
 125    5:00    0.001     999.000     35.2    100     2.0      28     4.0   790.30   20.95   16.40  
 125    5:10    0.002     999.000     35.4    100     2.7      28     4.6   790.40   20.96   16.40  
 125    5:20    0.006     999.000     35.7    100     2.5      32     5.4   790.40   20.96   16.40  
 125    5:30    0.013     999.000     35.8    100     2.4      34     5.4   790.30   20.95   16.30  
 125    5:40    0.015     999.000     36.2    100     2.7      36     6.1   790.40   20.96   16.30  
 125    5:50    0.020     999.000     36.6     93     3.1      30     5.6   790.40   20.97   16.30  
 125    6:00    0.023     999.000     37.2     90     3.0      27     6.1   790.30   20.95   16.30  
 125    6:10    0.042     999.000     38.0     87     3.3      28     4.9   790.40   20.96   16.30  
 125    6:20    0.043     999.000     38.6     85     3.8      31     8.0   790.40   20.95   16.40  
 125    6:30    0.028     999.000     38.5     86     3.0      38     5.9   790.40   20.95   16.40  
 125    6:40    0.039     999.000     38.6     86     3.3      31     6.0   790.40   20.96   16.40  
 125    6:50    0.065     999.000     39.0     86     3.1      32     5.2   790.40   20.95   16.40  
 125    7:00    0.073     999.000     39.4     86     2.9      29     5.4   790.40   20.96   16.30  
 125    7:10    0.115     999.000     40.2     84     2.4      30     5.3   790.40   20.95   16.30  
 125    7:20    0.104     999.000     41.1     83     2.2      41     4.2   790.40   20.97   16.20  
 125    7:30    0.120     999.000     41.4     83     2.3      24     4.7   790.30   20.97   16.20  
 125    7:40    0.164     999.000     42.7     80     1.6      34     4.1   790.20   20.97   16.00  
 125    7:50    0.144     999.000     44.5     76     1.6      38     4.4   790.10   20.97   16.00  
 125    8:00    0.184     999.000     45.1     75     1.9      28     3.7   790.10   20.97   15.90  
 125    8:10    0.170     999.000     46.2     72     1.7      31     3.6   790.10   20.98   15.80  
 125    8:20    0.371     999.000     48.2     66     1.6      39     3.5   790.00   20.96   15.40  
 125    8:30    0.389     999.000     51.9     53     1.3      46     3.0   789.90   20.96   14.90  
 125    8:40    0.387     999.000     53.0     49     1.4     125     3.2   790.00   20.95   14.60  
 125    8:50    0.386     999.000     54.4     44     1.9     123     6.9   789.90   20.96   13.40  
 125    9:00    0.298     999.000     53.8     48     1.6     228     4.3   789.90   20.97   14.20  
 125    9:10    0.303     999.000     53.3     44     2.9     171     6.7   789.90   20.95   14.90  
 125    9:20    0.269     999.000     53.5     49     0.9     312     4.0   789.90   20.96   14.20  
 125    9:30    0.079     999.000     51.5     59     1.8     236     3.9   790.10   20.95   13.40  
 125    9:40    0.099     999.000     48.8     66     1.4     173     5.8   790.30   20.91   10.90  
 125    9:50    0.272     999.000     48.2     71     1.3      31     2.6   790.20   20.95   11.60  
 125   10:00    0.448     999.000     50.5     65     1.6      26     3.3   790.10   20.95   13.20  
 125   10:10    0.546     999.000     53.5     51     1.6      98     8.5   790.00   20.97   13.10  
 125   10:20    0.514     999.000     55.3     44     1.4     132     3.8   790.00   20.97   13.80  
 125   10:30    0.502     999.000     55.2     45     1.8      93     5.1   790.00   20.97   13.80  
 125   10:40    0.710     999.000     56.0     44     1.9     184     8.6   789.90   20.95   14.10  
 125   10:50    0.763     999.000     57.2     42     2.4     210     6.9   789.90   20.94   13.90  
 125   11:00    0.803     999.000     58.4     40     2.5     158     9.6   789.80   20.95   13.60  
 125   11:10    0.546     999.000     57.5     41     2.4     222     6.9   789.60   20.94   13.20  
 125   11:20    0.313     999.000     56.0     44     2.2     199     5.7   789.50   20.95   14.40  
 125   11:30    0.358     999.000     55.4     43     3.0     166     6.6   789.50   20.95   14.50  
 125   11:40    0.467     999.000     56.1     41     2.4     176     7.1   789.50   20.95   13.80  
 125   11:50    0.351     999.000     56.6     38     3.1     174     7.3   789.40   20.95   14.50  
 125   12:00    0.251     999.000     55.9     41     2.2     210     7.3   789.30   20.96   14.40  
 125   12:10    0.385     999.000     55.3     43     2.7     226    13.3   789.20   20.95   14.50  
 125   12:20    0.385     999.000     56.1     40     3.0     198    13.2   789.20   20.95   14.40  
 125   12:30    0.467     999.000     56.1     40     2.6     194     6.6   789.20   20.95   14.50  
 125   12:40    0.528     999.000     57.1     39     2.6     213     8.2   789.10   20.96   14.20  
 125   12:50    0.468     999.000     57.7     38     2.4     221     5.3   789.10   20.95   14.30  
 125   13:00    0.494     999.000     57.2     42     1.9     216     4.6   789.00   20.94   14.10  
 125   13:10    0.399     999.000     56.9     42     2.6     220     6.7   789.00   20.96   14.00  
 125   13:20    0.315     999.000     56.6     44     2.7     226     7.8   789.00   20.96   14.20  
 125   13:30    0.156     999.000     54.8     47     2.2     298     4.7   788.90   20.95   14.20  
 125   13:40    0.333     999.000     55.2     49     1.4     213     3.6   788.80   20.97   13.80  
 125   13:50    0.116     999.000     54.9     49     1.7     170     5.2   788.70   20.94   14.00  
 125   14:00    0.018     999.000     52.1     54     2.7      66     6.2   788.50   20.94   14.30  
 125   14:10    0.013     999.000     48.7     62     2.4     275     6.1   788.70   20.98   13.60  
 125   14:20    0.010     999.000     42.4     80     3.2      60     7.5   788.90   21.15   32.80  
 125   14:30    0.041     999.000     38.4     86     3.6      37     6.3   788.70   21.22   14.70  
 125   14:40    0.090     999.000     37.0    105     3.5      12     8.4   788.70   21.21   14.80  
 125   14:50    0.236     999.000     39.0    113     2.2      34     6.3   788.50   21.22   14.50  
 125   15:00    0.327     999.000     41.8    114     2.5      29     5.6   788.40   21.21   14.40  
 125   15:10    0.236     999.000     44.2    112     2.9      23     4.2   788.40   21.22   14.40  
 125   15:20    0.134     999.000     45.0    111     2.3      24     5.8   788.20   21.22   13.30  
 125   15:30    0.266     999.000     46.0    107     1.7      76     4.5   788.20   21.23   13.90  
 125   15:40    0.213     999.000     46.9    100     1.6      26     3.8   788.20   21.24   14.40  
 125   15:50    0.281     999.000     47.8    100     1.4      42     2.8   788.20   21.25   14.50  
 125   16:00    0.406     999.000     49.3     88     2.7      23     5.5   788.10   21.23   14.30  
 125   16:10    0.309     999.000     50.5     80     1.5     354     5.3   787.90   21.23   14.30  
 125   16:20    0.243     999.000     49.8     81     3.1     207     7.0   787.80   21.24   14.60  
 125   16:30    0.243     999.000     49.3     80     2.3     266     8.3   788.20   21.23   14.70  
 125   16:40    0.171     999.000     49.3     81     1.4      20     3.3   788.30   21.23   14.50  
 125   16:50    0.116     999.000     48.2     82     2.3      11     4.6   788.40   21.22   14.80  
 125   17:00    0.129     999.000     47.0     81     1.0      36     3.3   788.30   21.22   14.60  
 125   17:10    0.119     999.000     45.9     85     1.2      48     4.4   788.30   21.21   14.80  
 125   17:20    0.104     999.000     46.0     86     1.2     334     3.6   788.30   21.22   14.80  
 125   17:30    0.086     999.000     46.6     85     0.6      88     3.5   788.40   21.22   14.80  
 125   17:40    0.085     999.000     46.5     86     1.3     244     5.1   788.40   21.23   14.90  
 125   17:50    0.075     999.000     46.6     87     0.8     191     2.9   788.30   21.22   14.80  
 125   18:00    0.065     999.000     45.9     92     0.9      65     2.2   788.30   21.23   14.80  
 125   18:10    0.052     999.000     45.1    100     2.1      30     3.6   788.20   21.22   15.10  
 125   18:20    0.041     999.000     43.6     98     2.6      28     5.1   788.20   21.22   15.10  
 125   18:30    0.030     999.000     43.4    110     3.3      24     5.2   788.20   21.21   15.10  
 125   18:40    0.020     999.000     42.5    106     1.8      34     3.8   788.20   21.21   15.10  
 125   18:50    0.011     999.000     41.8    110     2.1      30     3.8   788.10   21.21   15.20  
 125   19:00    0.003     999.000     41.7    113     3.2      25     6.4   788.20   21.21   15.20  
 125   19:10    0.001     999.000     40.9    113     3.5      22     6.1   788.20   21.22   15.20  
 125   19:20    0.000     999.000     40.1    114     3.6      27     4.6   788.20   21.22   15.20  
 125   19:30    0.000     999.000     39.6    114     3.0      28     5.0   788.20   21.22   15.30  
 125   19:40    0.000     999.000     39.1    114     2.6      28     4.6   788.20   21.21   15.20  
 125   19:50    0.000     999.000     38.8    114     2.6      27     4.5   788.30   21.22   15.20  
 125   20:00    0.000     999.000     38.4    115     2.0      35     3.9   788.30   21.22   15.20  
 125   20:10    0.000     999.000     38.3    115     2.2      26     4.0   788.50   21.22   15.20  
 125   20:20    0.000     999.000     38.2    115     2.0      26     3.6   788.50   21.22   15.20  
 125   20:30    0.000     999.000     37.9    115     2.3      31     3.9   788.50   21.22   15.30  
 125   20:40    0.000     999.000     37.8    116     2.3      32     4.3   788.60   21.22   15.20  
 125   20:50    0.000     999.000     37.7    116     1.6      33     4.1   788.60   21.22   15.20  
 125   21:00    0.000     999.000     37.8    116     1.9      26     5.0   788.60   21.22   15.20  
 125   21:10    0.000     999.000     37.6    116     2.3      29     5.1   788.50   21.22   15.30  
 125   21:20    0.000     999.000     37.5    116     2.9      26     4.2   788.50   21.23   15.20  
 125   21:30    0.000     999.000     37.5    116     3.1      28     4.7   788.50   21.23   15.20  
 125   21:40    0.000     999.000     37.4    116     1.2      41     2.5   788.50   21.23   15.30  
 125   21:50    0.000     999.000     37.5    116     2.1      37     3.6   788.60   21.23   15.20  
 125   22:00    0.000     999.000     38.2    117     3.1      28     9.2   788.30   21.23   15.20  
 125   22:10    0.000     999.000     38.1    117     1.6      44     5.2   788.30   21.22   15.20  
 125   22:20    0.000     999.000     38.3    117     2.4      37     5.2   788.30   21.22   15.20  
 125   22:30    0.000     999.000     38.4    117     1.9      17     6.8   788.30   21.23   15.10  
 125   22:40    0.000     999.000     38.1    116     1.5      33     3.6   788.20   21.23   15.20  
 125   22:50    0.000     999.000     38.0    116     2.7      31     4.6   788.20   21.23   15.30  
 125   23:00    0.000     999.000     37.9    116     1.5      36     4.7   788.20   21.23   15.20  
 125   23:10    0.000     999.000     37.6    116     0.9      61     2.2   788.20   21.22   15.20  
 125   23:20    0.000     999.000     37.4    116     2.5      33     4.3   788.10   21.23   15.30  
 125   23:30    0.000     999.000     37.1    116     2.7      31     3.7   788.10   21.22   15.30  
 125   23:40    0.000     999.000     37.0    116     1.5      39     3.8   788.10   21.22   15.20  
 125   23:50    0.000     999.000     36.8    116     2.6      30     4.1   788.00   21.22   15.30  
 126    0:00    0.000     999.000     36.6    116     1.9      43     4.8   788.00   21.22   15.30  
 126    0:10    0.000     999.000     36.5    116     2.4      29     4.2   787.90   21.23   15.30  
 126    0:20    0.000     999.000     36.3    116     2.1      37     4.4   787.80   21.23   15.30  
 126    0:30    0.000     999.000     36.5    116     2.3      33     4.6   787.70   21.23   15.30  
 126    0:40    0.000     999.000     36.1    116     1.4      48     3.4   787.60   21.22   15.40  
 126    0:50    0.000     999.000     36.0    116     2.6      29     4.3   787.60   21.23   15.40  
 126    1:00    0.000     999.000     36.0    116     2.2      31     4.2   787.60   21.22   15.40  
 126    1:10    0.000     999.000     35.8    116     2.3      35     4.1   787.50   21.22   15.40  
 126    1:20    0.000     999.000     36.0    116     1.9      34     3.2   787.40   21.22   15.40  
 126    1:30    0.000     999.000     35.8    116     1.5      31     3.3   787.30   21.22   15.40  
 126    1:40    0.000     999.000     35.6    116     1.6      31     2.9   787.20   21.23   15.40  
 126    1:50    0.000     999.000     35.7    116     2.1      31     3.7   787.10   21.23   15.40  
 126    2:00    0.000     999.000     35.7    116     1.9      26     3.4   787.10   21.22   15.40  
 126    2:10    0.000     999.000     35.6    116     2.5      30     4.4   787.00   21.22   15.40  
 126    2:20    0.000     999.000     35.7    116     3.9      26     4.6   787.00   21.22   15.40  
 126    2:30    0.000     999.000     35.7    116     2.6      27     4.3   787.00   21.23   15.40  
 126    2:40    0.000     999.000     35.8    116     2.8      32     4.5   787.10   21.23   15.40  
 126    2:50    0.000     999.000     35.9    116     3.2      31     6.1   787.00   21.23   15.40  
 126    3:00    0.000     999.000     35.9    115     2.5      30     4.8   786.90   21.23   15.40  
 126    3:10    0.000     999.000     36.0    115     1.2      32     3.6   787.10   21.23   15.40  

Return to Central Sierra Snow Lab graphs page.


Western Regional Climate Center,wrcc@dri.edu